createdAt,value
2018-05-16T00:00:00.517Z,59.51
2018-05-16T00:02:28.088Z,58.77
2018-05-16T00:04:55.694Z,58.58
2018-05-16T00:07:23.309Z,58.21
2018-05-16T00:09:50.894Z,57.86
2018-05-16T00:12:18.685Z,57.67
2018-05-16T00:14:46.275Z,57.93
2018-05-16T00:17:13.877Z,57.67
2018-05-16T00:19:41.489Z,58.10
2018-05-16T00:22:09.066Z,58.32
2018-05-16T00:24:36.658Z,57.70
2018-05-16T00:27:04.275Z,57.97
2018-05-16T00:29:31.894Z,57.83
2018-05-16T00:31:59.469Z,58.30
2018-05-16T00:34:27.089Z,58.27
2018-05-16T00:36:54.678Z,58.46
2018-05-16T00:39:22.265Z,58.92
2018-05-16T00:41:49.879Z,58.88
2018-05-16T00:44:17.474Z,59.55
2018-05-16T00:46:45.069Z,59.33
2018-05-16T00:49:12.696Z,59.34
2018-05-16T00:51:40.287Z,59.80
2018-05-16T00:54:07.875Z,59.17
2018-05-16T00:56:35.514Z,58.64
2018-05-16T00:59:03.093Z,57.57
2018-05-16T01:01:30.676Z,58.05
2018-05-16T01:03:58.298Z,58.18
2018-05-16T01:06:25.875Z,57.51
2018-05-16T01:08:53.457Z,56.79
2018-05-16T01:11:21.080Z,56.49
2018-05-16T01:13:50.484Z,56.50
2018-05-16T01:16:18.081Z,56.32
2018-05-16T01:18:45.717Z,56.58
2018-05-16T01:21:13.312Z,56.56
2018-05-16T01:23:40.911Z,56.37
2018-05-16T01:26:08.536Z,56.67
2018-05-16T01:28:36.127Z,56.56
2018-05-16T01:31:03.727Z,56.69
2018-05-16T01:33:31.352Z,56.94
2018-05-16T01:35:58.937Z,56.59
2018-05-16T01:38:27.178Z,56.50
2018-05-16T01:40:55.581Z,56.05
2018-05-16T01:43:23.168Z,55.75
2018-05-16T01:45:50.758Z,56.50
2018-05-16T01:48:18.386Z,56.39
2018-05-16T01:50:45.981Z,56.88
2018-05-16T01:53:13.568Z,57.78
2018-05-16T01:55:41.200Z,57.42
2018-05-16T01:58:08.784Z,57.23
2018-05-16T02:00:36.391Z,57.99
2018-05-16T02:03:04.028Z,57.77
2018-05-16T02:05:31.615Z,58.30
2018-05-16T02:07:59.199Z,61.16
2018-05-16T02:10:26.827Z,61.97
2018-05-16T02:12:54.409Z,63.60
2018-05-16T02:15:22.010Z,63.64
2018-05-16T02:17:49.641Z,63.90
2018-05-16T02:20:17.227Z,65.93
2018-05-16T02:22:44.849Z,64.92
2018-05-16T02:25:12.468Z,64.67
2018-05-16T02:27:40.076Z,66.30
2018-05-16T02:30:07.669Z,67.06
2018-05-16T02:32:35.292Z,66.51
2018-05-16T02:35:02.890Z,66.93
2018-05-16T02:37:30.537Z,69.72
2018-05-16T02:39:58.152Z,68.67
2018-05-16T02:42:25.749Z,68.87
2018-05-16T02:44:53.337Z,68.54
2018-05-16T02:47:20.956Z,71.16
2018-05-16T02:49:48.556Z,71.79
2018-05-16T02:52:16.152Z,72.22
2018-05-16T02:54:43.820Z,72.36
2018-05-16T02:57:11.413Z,72.33
2018-05-16T02:59:39.003Z,72.52
2018-05-16T03:02:06.639Z,71.94
2018-05-16T03:04:34.244Z,73.72
2018-05-16T03:07:01.843Z,73.66
2018-05-16T03:09:29.493Z,74.52
2018-05-16T03:11:57.094Z,75.18
2018-05-16T03:14:24.694Z,74.89
2018-05-16T03:16:52.328Z,74.67
2018-05-16T03:19:19.935Z,74.67
2018-05-16T03:21:47.537Z,74.58
2018-05-16T03:24:15.173Z,74.89
2018-05-16T03:26:42.756Z,75.54
2018-05-16T03:29:10.353Z,76.64
2018-05-16T03:31:37.970Z,78.07
2018-05-16T03:34:05.558Z,78.32
2018-05-16T03:36:33.152Z,77.75
2018-05-16T03:39:00.798Z,76.66
2018-05-16T03:41:28.394Z,75.47
2018-05-16T03:43:55.990Z,75.50
2018-05-16T03:46:23.632Z,75.19
2018-05-16T03:48:51.228Z,74.41
2018-05-16T03:51:18.823Z,74.06
2018-05-16T03:53:46.474Z,73.41
2018-05-16T03:56:14.066Z,72.32
2018-05-16T03:58:53.438Z,72.91
2018-05-16T04:01:32.660Z,72.74
2018-05-16T04:04:11.955Z,72.37
2018-05-16T04:06:39.554Z,71.09
2018-05-16T04:09:07.131Z,70.53
2018-05-16T04:11:34.761Z,71.88
2018-05-16T04:14:02.340Z,70.03
2018-05-16T04:16:29.917Z,70.71
2018-05-16T04:18:57.557Z,68.80
2018-05-16T04:21:25.149Z,68.61
2018-05-16T04:23:52.739Z,67.90
2018-05-16T04:26:20.355Z,67.80
2018-05-16T04:28:47.958Z,63.17
2018-05-16T04:31:15.582Z,60.41
2018-05-16T04:33:43.199Z,61.50
2018-05-16T04:36:10.803Z,62.87
2018-05-16T04:38:38.383Z,64.81
2018-05-16T04:41:06.022Z,66.71
2018-05-16T04:43:33.791Z,70.35
2018-05-16T04:46:01.380Z,71.79
2018-05-16T04:48:29.004Z,72.91
2018-05-16T04:50:56.589Z,76.07
2018-05-16T04:53:24.181Z,74.40
2018-05-16T04:55:51.794Z,74.21
2018-05-16T04:58:19.376Z,72.67
2018-05-16T05:00:46.955Z,72.39
2018-05-16T05:03:14.589Z,72.68
2018-05-16T05:05:42.187Z,72.82
2018-05-16T05:08:09.768Z,72.45
2018-05-16T05:10:37.396Z,73.83
2018-05-16T05:13:04.977Z,73.57
2018-05-16T05:15:32.556Z,73.35
2018-05-16T05:18:00.155Z,72.75
2018-05-16T05:20:27.740Z,74.11
2018-05-16T05:22:55.333Z,74.36
2018-05-16T05:25:22.947Z,74.46
2018-05-16T05:27:50.536Z,72.91
2018-05-16T05:30:18.156Z,71.41
2018-05-16T05:32:45.765Z,70.07
2018-05-16T05:35:13.345Z,68.00
2018-05-16T05:37:40.942Z,66.68
2018-05-16T05:40:08.574Z,62.71
2018-05-16T05:42:36.148Z,54.00
2018-05-16T05:45:03.743Z,50.58
2018-05-16T05:47:31.367Z,48.60
2018-05-16T05:49:58.952Z,46.36
2018-05-16T05:52:26.531Z,43.55
2018-05-16T05:54:54.150Z,37.55
2018-05-16T05:57:21.730Z,36.14
2018-05-16T05:59:49.315Z,34.54
2018-05-16T06:02:16.936Z,33.21
2018-05-16T06:04:44.531Z,31.57
2018-05-16T06:07:12.098Z,30.77
2018-05-16T06:09:39.730Z,29.29
2018-05-16T06:12:07.320Z,31.91
2018-05-16T06:14:34.983Z,32.72
2018-05-16T06:17:02.610Z,30.61
2018-05-16T06:19:30.264Z,31.23
2018-05-16T06:21:57.809Z,32.61
2018-05-16T06:24:25.508Z,32.56
2018-05-16T06:26:53.088Z,29.77
2018-05-16T06:29:20.719Z,28.06
2018-05-16T06:31:48.340Z,28.05
2018-05-16T06:34:15.921Z,27.21
2018-05-16T06:36:43.520Z,27.30
2018-05-16T06:39:11.243Z,26.30
2018-05-16T06:41:38.767Z,26.42
2018-05-16T06:44:06.353Z,26.25
2018-05-16T06:46:33.980Z,29.56
2018-05-16T06:49:01.568Z,31.98
2018-05-16T06:51:29.134Z,35.65
2018-05-16T06:53:56.789Z,36.04
2018-05-16T06:56:24.416Z,37.97
2018-05-16T06:58:51.995Z,36.18
2018-05-16T07:01:19.627Z,36.05
2018-05-16T07:03:47.220Z,37.59
2018-05-16T07:06:14.800Z,32.14
2018-05-16T07:08:42.430Z,29.99
2018-05-16T07:11:10.027Z,30.08
2018-05-16T07:13:37.743Z,30.54
2018-05-16T07:16:05.338Z,30.89
2018-05-16T07:18:32.912Z,30.02
2018-05-16T07:21:00.500Z,31.69
2018-05-16T07:23:28.116Z,34.18
2018-05-16T07:25:55.689Z,36.54
2018-05-16T07:28:23.262Z,36.78
2018-05-16T07:30:50.880Z,39.89
2018-05-16T07:33:18.445Z,40.23
2018-05-16T07:35:46.018Z,39.91
2018-05-16T07:38:13.627Z,41.22
2018-05-16T07:40:41.196Z,40.23
2018-05-16T07:43:08.763Z,39.88
2018-05-16T07:45:36.356Z,39.73
2018-05-16T07:48:03.953Z,39.17
2018-05-16T07:50:31.528Z,40.17
2018-05-16T07:52:59.873Z,42.92
2018-05-16T07:55:27.468Z,42.93
2018-05-16T07:57:55.046Z,43.41
2018-05-16T08:00:22.644Z,45.12
2018-05-16T08:02:50.212Z,43.78
2018-05-16T08:05:17.777Z,44.97
2018-05-16T08:07:45.381Z,47.17
2018-05-16T08:10:12.957Z,44.96
2018-05-16T08:12:40.521Z,43.89
2018-05-16T08:15:08.123Z,42.79
2018-05-16T08:17:35.695Z,42.37
2018-05-16T08:20:03.289Z,42.72
2018-05-16T08:22:30.909Z,42.60
2018-05-16T08:24:58.493Z,37.19
2018-05-16T08:27:26.073Z,34.81
2018-05-16T08:29:53.682Z,32.49
2018-05-16T08:32:21.254Z,27.83
2018-05-16T08:34:48.819Z,27.46
2018-05-16T08:37:16.441Z,26.59
2018-05-16T08:39:44.036Z,28.66
2018-05-16T08:42:11.641Z,31.22
2018-05-16T08:44:39.275Z,31.98
2018-05-16T08:47:06.844Z,33.19
2018-05-16T08:49:34.439Z,31.19
2018-05-16T08:52:02.063Z,29.97
2018-05-16T08:54:29.646Z,29.01
2018-05-16T08:56:57.235Z,29.43
2018-05-16T08:59:24.867Z,27.82
2018-05-16T09:01:52.454Z,30.92
2018-05-16T09:04:20.029Z,30.32
2018-05-16T09:06:47.645Z,30.96
2018-05-16T09:09:15.225Z,30.14
2018-05-16T09:11:42.800Z,29.43
2018-05-16T09:14:10.406Z,30.54
2018-05-16T09:16:37.972Z,28.47
2018-05-16T09:19:05.547Z,29.79
2018-05-16T09:21:33.173Z,29.88
2018-05-16T09:24:00.760Z,30.26
2018-05-16T09:26:28.339Z,29.44
2018-05-16T09:28:55.954Z,31.15
2018-05-16T09:31:23.557Z,28.90
2018-05-16T09:33:51.175Z,28.99
2018-05-16T09:36:18.798Z,26.28
2018-05-16T09:38:46.419Z,28.16
2018-05-16T09:41:14.009Z,29.35
2018-05-16T09:43:41.680Z,27.45
2018-05-16T09:46:09.253Z,26.83
2018-05-16T09:48:36.877Z,25.72
2018-05-16T09:51:04.511Z,27.85
2018-05-16T09:53:32.100Z,30.24
2018-05-16T09:55:59.705Z,30.96
2018-05-16T09:58:27.487Z,33.89
2018-05-16T10:00:55.065Z,33.19
2018-05-16T10:03:22.642Z,33.95
2018-05-16T10:05:50.264Z,35.85
2018-05-16T10:08:17.847Z,38.51
2018-05-16T10:10:45.429Z,38.78
2018-05-16T10:13:13.038Z,38.51
2018-05-16T10:15:40.642Z,39.41
2018-05-16T10:18:08.227Z,41.67
2018-05-16T10:20:35.914Z,41.94
2018-05-16T10:23:03.486Z,38.04
2018-05-16T10:25:31.088Z,35.93
2018-05-16T10:27:58.728Z,36.25
2018-05-16T10:30:26.304Z,37.05
2018-05-16T10:32:53.868Z,38.69
2018-05-16T10:35:21.468Z,39.07
2018-05-16T10:37:49.023Z,36.34
2018-05-16T10:40:16.595Z,31.02
2018-05-16T10:42:44.227Z,32.54
2018-05-16T10:45:11.797Z,30.50
2018-05-16T10:47:39.359Z,28.33
2018-05-16T10:50:06.967Z,28.90
2018-05-16T10:52:34.526Z,27.90
2018-05-16T10:55:02.116Z,27.57
2018-05-16T10:57:29.836Z,28.37
2018-05-16T10:59:57.511Z,28.01
2018-05-16T11:02:25.105Z,27.72
2018-05-16T11:04:52.705Z,28.30
2018-05-16T11:07:20.267Z,29.09
2018-05-16T11:09:47.820Z,28.07
2018-05-16T11:12:15.426Z,29.62
2018-05-16T11:14:43.011Z,28.96
2018-05-16T11:17:10.583Z,27.61
2018-05-16T11:19:38.205Z,28.61
2018-05-16T11:22:05.772Z,28.39
2018-05-16T11:24:33.377Z,28.79
2018-05-16T11:27:00.990Z,31.70
2018-05-16T11:29:28.546Z,32.13
2018-05-16T11:31:56.117Z,34.38
2018-05-16T11:34:23.732Z,35.61
2018-05-16T11:36:51.335Z,39.46
2018-05-16T11:39:18.908Z,40.16
2018-05-16T11:41:46.501Z,39.84
2018-05-16T11:44:14.083Z,39.77
2018-05-16T11:46:41.653Z,39.07
2018-05-16T11:49:09.247Z,40.07
2018-05-16T11:51:36.822Z,39.39
2018-05-16T11:54:04.376Z,38.40
2018-05-16T11:56:31.967Z,36.27
2018-05-16T11:58:59.539Z,37.07
2018-05-16T12:01:27.094Z,38.19
2018-05-16T12:03:54.780Z,37.62
2018-05-16T12:06:22.345Z,33.53
2018-05-16T12:08:49.927Z,32.70
2018-05-16T12:11:17.535Z,34.41
2018-05-16T12:13:45.090Z,33.95
2018-05-16T12:16:12.705Z,36.02
2018-05-16T12:18:40.302Z,36.99
2018-05-16T12:21:07.869Z,37.64
2018-05-16T12:23:35.429Z,38.77
2018-05-16T12:26:03.020Z,39.39
2018-05-16T12:28:30.594Z,40.61
2018-05-16T12:30:58.180Z,39.11
2018-05-16T12:33:25.776Z,37.64
2018-05-16T12:35:53.350Z,35.13
2018-05-16T12:38:20.926Z,33.04
2018-05-16T12:40:48.529Z,34.00
2018-05-16T12:43:18.113Z,34.68
2018-05-16T12:45:45.736Z,35.20
2018-05-16T12:48:13.356Z,37.66
2018-05-16T12:50:40.915Z,37.32
2018-05-16T12:53:08.488Z,38.06
2018-05-16T12:55:36.095Z,37.74
2018-05-16T12:58:03.665Z,38.58
2018-05-16T13:00:31.264Z,37.98
2018-05-16T13:02:58.881Z,37.91
2018-05-16T13:05:26.466Z,38.35
2018-05-16T13:07:54.053Z,39.62
2018-05-16T13:10:21.682Z,40.75
2018-05-16T13:12:49.273Z,41.63
2018-05-16T13:15:16.877Z,41.83
2018-05-16T13:17:44.582Z,40.13
2018-05-16T13:20:12.147Z,42.07
2018-05-16T13:22:39.710Z,42.48
2018-05-16T13:25:07.344Z,42.80
2018-05-16T13:27:34.924Z,43.77
2018-05-16T13:30:02.487Z,45.53
2018-05-16T13:32:30.096Z,43.91
2018-05-16T13:34:57.665Z,44.41
2018-05-16T13:37:25.517Z,44.13
2018-05-16T13:39:53.130Z,44.46
2018-05-16T13:42:20.721Z,46.22
2018-05-16T13:44:48.294Z,46.38
2018-05-16T13:47:15.893Z,46.51
2018-05-16T13:49:43.455Z,44.50
2018-05-16T13:52:11.097Z,43.38
2018-05-16T13:54:38.802Z,43.19
2018-05-16T13:57:06.441Z,43.12
2018-05-16T13:59:34.028Z,43.46
2018-05-16T14:02:01.648Z,45.56
2018-05-16T14:04:29.223Z,46.83
2018-05-16T14:06:56.800Z,46.06
2018-05-16T14:09:24.400Z,44.61
2018-05-16T14:11:52.029Z,43.56
2018-05-16T14:14:19.612Z,44.39
2018-05-16T14:16:47.221Z,43.81
2018-05-16T14:19:14.807Z,43.98
2018-05-16T14:21:43.246Z,43.89
2018-05-16T14:24:11.795Z,43.45
2018-05-16T14:26:40.000Z,42.17
2018-05-16T14:29:07.755Z,42.67
2018-05-16T14:31:35.357Z,42.15
2018-05-16T14:34:02.924Z,42.84
2018-05-16T14:36:30.514Z,43.03
2018-05-16T14:38:58.153Z,42.70
2018-05-16T14:41:25.733Z,42.82
2018-05-16T14:43:53.333Z,43.97
2018-05-16T14:46:20.945Z,42.81
2018-05-16T14:48:48.528Z,44.84
2018-05-16T14:51:16.085Z,43.74
2018-05-16T14:53:43.698Z,43.21
2018-05-16T14:56:11.617Z,44.08
2018-05-16T14:58:39.180Z,43.77
2018-05-16T15:01:06.787Z,44.02
2018-05-16T15:03:34.356Z,45.21
2018-05-16T15:06:01.941Z,45.02
2018-05-16T15:08:29.549Z,45.08
2018-05-16T15:10:57.132Z,45.59
2018-05-16T15:13:24.713Z,44.78
2018-05-16T15:15:52.322Z,45.32
2018-05-16T15:18:19.899Z,45.28
2018-05-16T15:20:47.583Z,44.85
2018-05-16T15:23:15.212Z,45.34
2018-05-16T15:25:42.785Z,45.11
2018-05-16T15:28:10.369Z,44.33
2018-05-16T15:30:37.976Z,45.93
2018-05-16T15:33:05.622Z,45.63
2018-05-16T15:35:33.185Z,44.79
2018-05-16T15:38:00.792Z,44.80
2018-05-16T15:40:28.376Z,46.66
2018-05-16T15:42:55.998Z,47.23
2018-05-16T15:45:23.627Z,46.72
2018-05-16T15:47:51.202Z,45.80
2018-05-16T15:50:18.770Z,46.10
2018-05-16T15:52:46.361Z,46.18
2018-05-16T15:55:13.926Z,47.18
2018-05-16T15:57:41.503Z,47.71
2018-05-16T16:00:09.136Z,48.72
2018-05-16T16:02:36.710Z,49.36
2018-05-16T16:05:04.290Z,50.33
2018-05-16T16:07:31.896Z,51.48
2018-05-16T16:09:59.473Z,50.31
2018-05-16T16:12:27.056Z,51.42
2018-05-16T16:14:54.742Z,50.22
2018-05-16T16:17:22.322Z,51.43
2018-05-16T16:19:49.892Z,51.40
2018-05-16T16:22:17.516Z,52.47
2018-05-16T16:24:45.114Z,52.78
2018-05-16T16:27:12.723Z,54.55
2018-05-16T16:29:40.771Z,54.29
2018-05-16T16:32:08.455Z,55.28
2018-05-16T16:34:36.550Z,54.10
2018-05-16T16:37:04.883Z,55.48
2018-05-16T16:39:32.471Z,54.43
2018-05-16T16:42:00.998Z,54.13
2018-05-16T16:44:28.617Z,55.07
2018-05-16T16:46:56.182Z,54.40
2018-05-16T16:49:23.760Z,54.55
2018-05-16T16:51:51.398Z,54.47
2018-05-16T16:54:18.988Z,54.23
2018-05-16T16:56:46.627Z,52.65
2018-05-16T16:59:14.244Z,53.06
2018-05-16T17:01:42.121Z,53.90
2018-05-16T17:04:09.718Z,54.38
2018-05-16T17:06:37.337Z,54.95
2018-05-16T17:09:05.115Z,55.19
2018-05-16T17:11:32.685Z,50.54
2018-05-16T17:14:00.333Z,50.24
2018-05-16T17:16:27.948Z,51.93
2018-05-16T17:18:55.528Z,52.64
2018-05-16T17:21:23.143Z,52.24
2018-05-16T17:23:50.711Z,53.51
2018-05-16T17:26:18.307Z,53.36
2018-05-16T17:28:45.919Z,55.65
2018-05-16T17:31:13.477Z,55.26
2018-05-16T17:33:41.066Z,55.07
2018-05-16T17:36:08.666Z,54.30
2018-05-16T17:38:38.651Z,54.96
2018-05-16T17:41:06.228Z,55.85
2018-05-16T17:43:33.855Z,52.80
2018-05-16T17:46:01.511Z,53.33
2018-05-16T17:48:29.103Z,56.28
2018-05-16T17:50:56.706Z,54.26
2018-05-16T17:53:24.304Z,56.00
2018-05-16T17:55:51.872Z,57.10
2018-05-16T17:58:19.464Z,51.89
2018-05-16T18:00:47.096Z,53.23
2018-05-16T18:03:14.623Z,51.84
2018-05-16T18:05:42.557Z,52.27
2018-05-16T18:08:10.133Z,53.78
2018-05-16T18:10:37.729Z,53.40
2018-05-16T18:16:28.391Z,56.14
2018-05-16T18:18:55.976Z,54.96
2018-05-16T18:21:23.551Z,56.07
2018-05-16T18:23:51.141Z,56.26
2018-05-16T18:26:18.730Z,53.21
2018-05-16T18:28:46.312Z,53.77
2018-05-16T18:31:13.884Z,54.26
2018-05-16T18:33:41.489Z,53.66
2018-05-16T18:36:09.111Z,53.68
2018-05-16T18:38:36.668Z,54.27
2018-05-16T18:41:04.249Z,54.12
2018-05-16T18:43:31.817Z,55.53
2018-05-16T18:45:59.397Z,55.99
2018-05-16T18:48:27.016Z,56.36
2018-05-16T18:50:54.588Z,56.58
2018-05-16T18:53:22.149Z,55.57
2018-05-16T18:55:49.819Z,55.30
2018-05-16T18:58:17.392Z,55.07
2018-05-16T19:00:44.995Z,56.94
2018-05-16T19:03:12.589Z,55.10
2018-05-16T19:05:40.194Z,55.47
2018-05-16T19:08:07.774Z,56.67
2018-05-16T19:10:35.372Z,54.56
2018-05-16T19:13:02.949Z,55.70
2018-05-16T19:15:30.534Z,55.34
2018-05-16T19:17:58.153Z,55.17
2018-05-16T19:20:25.754Z,55.12
2018-05-16T19:22:53.323Z,54.53
2018-05-16T19:25:21.551Z,55.19
2018-05-16T19:27:49.136Z,55.66
2018-05-16T19:30:16.704Z,56.54
2018-05-16T19:32:44.301Z,55.59
2018-05-16T19:35:11.860Z,56.68
2018-05-16T19:37:39.466Z,57.42
2018-05-16T19:40:07.389Z,56.38
2018-05-16T19:42:34.969Z,58.21
2018-05-16T19:45:02.534Z,58.00
2018-05-16T19:47:30.156Z,57.19
2018-05-16T19:49:57.748Z,56.96
2018-05-16T19:52:25.314Z,56.98
2018-05-16T19:54:52.949Z,59.02
2018-05-16T19:57:20.531Z,59.28
2018-05-16T19:59:48.101Z,59.25
2018-05-16T20:02:15.706Z,57.93
2018-05-16T20:04:43.307Z,57.37
2018-05-16T20:07:10.892Z,57.97
2018-05-16T20:09:39.705Z,59.00
2018-05-16T20:12:07.294Z,60.10
2018-05-16T20:14:34.981Z,59.84
2018-05-16T20:17:02.553Z,59.94
2018-05-16T20:19:30.139Z,61.48
2018-05-16T20:21:57.742Z,58.83
2018-05-16T20:24:25.353Z,60.42
2018-05-16T20:26:52.947Z,60.25
2018-05-16T20:29:20.551Z,59.76
2018-05-16T20:31:48.186Z,61.58
2018-05-16T20:34:16.392Z,57.62
2018-05-16T20:36:44.053Z,56.33
2018-05-16T20:39:11.662Z,54.93
2018-05-16T20:41:39.258Z,54.68
2018-05-16T20:44:06.840Z,54.54
2018-05-16T20:46:34.446Z,54.26
2018-05-16T20:49:02.028Z,55.07
2018-05-16T20:51:29.615Z,57.86
2018-05-16T20:53:57.241Z,55.89
2018-05-16T20:56:24.818Z,57.21
2018-05-16T20:58:52.429Z,57.18
2018-05-16T21:01:20.062Z,57.74
2018-05-16T21:03:47.634Z,58.61
2018-05-16T21:06:15.204Z,58.64
2018-05-16T21:08:42.805Z,60.74
2018-05-16T21:11:10.394Z,60.36
2018-05-16T21:13:37.980Z,58.49
2018-05-16T21:16:05.597Z,60.48
2018-05-16T21:18:33.174Z,62.46
2018-05-16T21:21:00.754Z,60.25
2018-05-16T21:23:28.353Z,60.87
2018-05-16T21:25:55.941Z,62.75
2018-05-16T21:28:23.524Z,63.62
2018-05-16T21:30:51.149Z,64.53
2018-05-16T21:33:18.722Z,65.93
2018-05-16T21:35:46.312Z,65.80
2018-05-16T21:38:13.914Z,66.85
2018-05-16T21:40:41.499Z,68.52
2018-05-16T21:43:15.040Z,68.32
2018-05-16T21:45:42.619Z,69.09
2018-05-16T21:48:10.205Z,70.80
2018-05-16T21:50:38.793Z,70.72
2018-05-16T21:53:06.383Z,71.63
2018-05-16T21:55:33.983Z,72.03
2018-05-16T21:58:01.609Z,72.73
2018-05-16T22:00:30.128Z,71.81
2018-05-16T22:02:57.711Z,73.62
2018-05-16T22:05:25.325Z,75.74
2018-05-16T22:07:52.920Z,76.49
2018-05-16T22:10:20.522Z,77.10
2018-05-16T22:12:48.166Z,77.84
2018-05-16T22:15:15.756Z,78.68
2018-05-16T22:17:43.342Z,78.62
2018-05-16T22:20:11.402Z,78.50
2018-05-16T22:22:39.018Z,77.96
2018-05-16T22:25:06.638Z,76.68
2018-05-16T22:27:34.450Z,76.28
2018-05-16T22:30:01.480Z,78.49
2018-05-16T22:32:35.651Z,81.31
2018-05-16T22:35:08.633Z,81.52
2018-05-16T22:37:41.827Z,80.35
2018-05-16T22:40:14.816Z,81.78
2018-05-16T22:42:41.837Z,81.23
2018-05-16T22:45:09.455Z,81.50
2018-05-16T22:47:37.024Z,81.71
2018-05-16T22:50:04.628Z,83.08
2018-05-16T22:52:32.198Z,81.77
2018-05-16T22:54:59.790Z,81.24
2018-05-16T22:57:27.457Z,82.46
2018-05-16T22:59:55.057Z,82.29
2018-05-16T23:02:22.642Z,82.69
2018-05-16T23:04:50.381Z,84.21
2018-05-16T23:07:17.961Z,84.14
2018-05-16T23:09:45.612Z,84.12
2018-05-16T23:12:13.225Z,84.59
2018-05-16T23:14:40.806Z,86.01
2018-05-16T23:17:08.390Z,87.04
2018-05-16T23:19:36.004Z,87.44
2018-05-16T23:22:03.945Z,87.48
2018-05-16T23:24:32.946Z,87.50
2018-05-16T23:27:00.560Z,87.37
2018-05-16T23:29:28.128Z,87.49
2018-05-16T23:31:55.704Z,87.37
2018-05-16T23:34:25.183Z,87.21
2018-05-16T23:36:53.487Z,87.62
2018-05-16T23:39:21.067Z,88.42
2018-05-16T23:41:48.689Z,90.09
2018-05-16T23:44:16.261Z,90.60
2018-05-16T23:46:43.868Z,90.17
2018-05-16T23:49:11.494Z,90.58
2018-05-16T23:51:39.094Z,90.59
2018-05-16T23:54:06.701Z,89.48
2018-05-16T23:56:34.310Z,90.33
2018-05-16T23:59:02.334Z,91.14
